Whitefield, New Hampshire
Current Conditions -  °F | °C
As of 7:11 AM on Thursday 18 Dec 2014 (Local Time) from KHIE Reporting Station
Light Snow Light Snow  
Wind Chill: 33°   Ceiling: 1700
Heat Index: 33°   Visibility: 3mi
Dew Point: 30°   Wind: 3mph
Humidity: 89%   Direction: 230°SW
Pressure: 29.7"   Gusts: NA
Location:  44.37°N, 71.62°W
Report Text: KHIE 181211Z AUTO 23003KT 3SM -SN BR OVC017 01/M01 A2970 RMK AO2 P0001 T00061011
Loading
Personal Weather Stations






























Interactive Weather Map New forecast layout! Learn more

10-Day Weather Forecast

Advertisements
Track Severe Weather on mobile